Time;durP1;ratioP1;P1;durP2;ratioP2;P2;SDS_P1;SDS_P2;PMS_P1;PMS_P2;Temp;Humidity;BMP_temperature;BMP_pressure;BME280_temperature;BME280_humidity;BME280_pressure;Samples;Min_cycle;Max_cycle;Signal;HPM_P1;HPM_P2
2024/04/24 00:01:39;;;;;;;13.45;10.80;;;;;;;;;;6779320;26;20003;-73
2024/04/24 00:04:42;;;;;;;14.45;9.85;;;;;;;;;;6737988;26;20810;-72
2024/04/24 00:07:44;;;;;;;12.52;9.15;;;;;;;;;;6704178;26;20002;-72
2024/04/24 00:10:51;;;;;;;10.65;8.18;;;;;;;;;;6786456;26;20650;-72
2024/04/24 00:13:54;;;;;;;13.48;8.55;;;;;;;;;;6753791;26;20005;-72
2024/04/24 00:16:57;;;;;;;11.45;8.65;;;;;;;;;;6766038;26;19999;-72
2024/04/24 00:20:00;;;;;;;11.35;8.43;;;;;;;;;;6703268;26;20003;-71
2024/04/24 00:23:03;;;;;;;13.10;6.65;;;;;;;;;;6726375;26;20752;-72
2024/04/24 00:26:06;;;;;;;11.65;9.48;;;;;;;;;;6744908;26;20085;-72
2024/04/24 00:29:09;;;;;;;11.30;10.20;;;;;;;;;;6649322;26;20008;-71
2024/04/24 00:32:11;;;;;;;14.50;9.15;;;;;;;;;;6728959;26;20006;-71
2024/04/24 00:35:14;;;;;;;14.27;9.82;;;;;;;;;;6721281;26;20714;-71
2024/04/24 00:38:16;;;;;;;16.60;9.23;;;;;;;;;;6772942;26;20006;-72
2024/04/24 00:41:19;;;;;;;14.93;11.57;;;;;;;;;;6744659;26;20002;-71
2024/04/24 00:44:22;;;;;;;15.43;10.85;;;;;;;;;;6694947;26;20654;-72
2024/04/24 00:47:26;;;;;;;12.18;10.07;;;;;;;;;;6700440;26;20002;-72
2024/04/24 00:50:29;;;;;;;13.10;8.23;;;;;;;;;;6711223;26;20080;-72
2024/04/24 00:53:32;;;;;;;11.77;9.05;;;;;;;;;;6723869;26;20019;-73
2024/04/24 00:56:35;;;;;;;13.50;10.07;;;;;;;;;;6733792;26;20003;-72
2024/04/24 00:59:37;;;;;;;14.70;12.82;;;;;;;;;;6760379;26;20022;-72
2024/04/24 01:02:41;;;;;;;13.68;9.95;;;;;;;;;;6762414;26;19999;-72
2024/04/24 01:05:44;;;;;;;11.85;7.68;;;;;;;;;;6716954;26;20989;-73
2024/04/24 01:08:47;;;;;;;15.70;6.45;;;;;;;;;;6699246;26;20380;-72
2024/04/24 01:11:51;;;;;;;13.25;9.05;;;;;;;;;;6743917;26;20594;-72
2024/04/24 01:14:53;;;;;;;13.18;9.50;;;;;;;;;;6726138;26;20009;-72
2024/04/24 01:17:58;;;;;;;17.95;10.27;;;;;;;;;;6704269;26;20004;-72
2024/04/24 01:21:02;;;;;;;15.77;9.55;;;;;;;;;;6725138;26;20121;-72
2024/04/24 01:24:23;;;;;;;12.82;9.25;;;;;;;;;;6703135;26;20002;-71
2024/04/24 01:27:26;;;;;;;11.57;8.80;;;;;;;;;;6744986;26;20024;-73
2024/04/24 01:30:29;;;;;;;14.32;9.27;;;;;;;;;;6714823;26;20013;-72
2024/04/24 01:33:31;;;;;;;16.55;9.68;;;;;;;;;;6732879;26;20011;-73
2024/04/24 01:36:34;;;;;;;12.85;8.88;;;;;;;;;;6703390;26;20002;-73
2024/04/24 01:39:37;;;;;;;18.45;7.70;;;;;;;;;;6732761;26;20373;-72
2024/04/24 01:42:40;;;;;;;11.20;8.30;;;;;;;;;;6744676;26;19995;-71
2024/04/24 01:45:42;;;;;;;11.75;8.32;;;;;;;;;;6734841;26;20074;-73
2024/04/24 01:48:45;;;;;;;15.00;8.98;;;;;;;;;;6736670;26;20608;-72
2024/04/24 01:51:47;;;;;;;15.30;6.90;;;;;;;;;;6736406;26;20758;-72
2024/04/24 01:54:50;;;;;;;13.35;9.15;;;;;;;;;;6695959;26;20050;-72
2024/04/24 01:57:52;;;;;;;13.55;9.07;;;;;;;;;;6755343;26;20003;-72
2024/04/24 02:00:55;;;;;;;10.10;8.15;;;;;;;;;;6772418;26;20799;-72
2024/04/24 02:03:58;;;;;;;16.13;8.00;;;;;;;;;;6726402;26;20476;-72
2024/04/24 02:07:00;;;;;;;15.98;12.20;;;;;;;;;;6736843;26;20032;-72
2024/04/24 02:10:03;;;;;;;10.27;8.85;;;;;;;;;;6763083;26;20014;-72
2024/04/24 02:13:06;;;;;;;16.80;8.73;;;;;;;;;;6691623;26;20462;-72
2024/04/24 02:16:08;;;;;;;13.10;8.48;;;;;;;;;;6722303;26;20002;-72
2024/04/24 02:19:11;;;;;;;13.68;7.88;;;;;;;;;;6726512;26;20017;-72
2024/04/24 02:22:14;;;;;;;11.38;7.60;;;;;;;;;;6707944;26;20007;-72
2024/04/24 02:25:35;;;;;;;10.45;7.60;;;;;;;;;;6753761;26;20399;-72
2024/04/24 02:28:37;;;;;;;13.63;9.38;;;;;;;;;;6704635;26;20046;-72
2024/04/24 02:31:40;;;;;;;15.70;8.15;;;;;;;;;;6768299;26;20250;-72
2024/04/24 02:34:43;;;;;;;9.68;8.07;;;;;;;;;;6749363;26;19999;-72
2024/04/24 02:37:45;;;;;;;9.43;8.25;;;;;;;;;;6734012;26;20004;-73
2024/04/24 02:40:48;;;;;;;11.40;9.82;;;;;;;;;;6737287;26;20373;-73
2024/04/24 02:43:51;;;;;;;12.15;7.55;;;;;;;;;;6704949;26;20002;-72
2024/04/24 02:46:53;;;;;;;13.15;9.82;;;;;;;;;;6741864;26;20002;-72
2024/04/24 02:49:56;;;;;;;12.98;8.38;;;;;;;;;;6758915;26;20025;-73
2024/04/24 02:52:59;;;;;;;11.10;8.63;;;;;;;;;;6710586;26;19998;-73
2024/04/24 02:56:02;;;;;;;11.25;7.85;;;;;;;;;;6723511;26;19999;-72
2024/04/24 02:59:04;;;;;;;13.18;9.93;;;;;;;;;;6733566;26;20519;-73
2024/04/24 03:02:07;;;;;;;10.75;7.85;;;;;;;;;;6702427;26;20082;-73
2024/04/24 03:05:10;;;;;;;10.25;8.23;;;;;;;;;;6737178;26;19999;-72
2024/04/24 03:08:12;;;;;;;15.88;8.77;;;;;;;;;;6719804;26;20051;-72
2024/04/24 03:11:15;;;;;;;13.88;9.20;;;;;;;;;;6776099;26;20002;-72
2024/04/24 03:14:19;;;;;;;12.57;8.68;;;;;;;;;;6751668;26;20000;-71
2024/04/24 03:17:22;;;;;;;11.55;8.88;;;;;;;;;;6678558;26;20846;-71
2024/04/24 03:20:25;;;;;;;14.52;9.52;;;;;;;;;;6784727;26;20013;-72
2024/04/24 03:23:28;;;;;;;18.30;9.45;;;;;;;;;;6751066;26;20017;-72
2024/04/24 03:26:30;;;;;;;12.05;9.15;;;;;;;;;;6716445;26;20006;-72
2024/04/24 03:29:33;;;;;;;11.60;8.55;;;;;;;;;;6775498;26;20439;-72
2024/04/24 03:32:35;;;;;;;13.10;8.07;;;;;;;;;;6696175;26;20014;-71
2024/04/24 03:35:38;;;;;;;12.48;11.15;;;;;;;;;;6749064;26;20014;-71
2024/04/24 03:38:44;;;;;;;14.20;12.13;;;;;;;;;;6749464;26;20014;-71
2024/04/24 03:41:47;;;;;;;16.10;9.98;;;;;;;;;;6730173;26;20465;-72
2024/04/24 03:44:49;;;;;;;13.43;9.00;;;;;;;;;;6727872;26;20605;-72
2024/04/24 03:47:52;;;;;;;14.88;9.13;;;;;;;;;;6727172;26;20046;-72
2024/04/24 03:50:55;;;;;;;20.10;9.90;;;;;;;;;;6730305;26;19998;-72
2024/04/24 03:53:57;;;;;;;15.57;11.32;;;;;;;;;;6765630;26;20010;-72
2024/04/24 03:57:00;;;;;;;12.43;8.93;;;;;;;;;;6760560;26;20002;-72
2024/04/24 04:00:02;;;;;;;17.08;10.65;;;;;;;;;;6683528;26;20004;-73
2024/04/24 04:03:13;;;;;;;18.10;11.65;;;;;;;;;;6727017;26;20392;-72
2024/04/24 04:06:16;;;;;;;15.88;10.98;;;;;;;;;;6732123;26;20016;-72
2024/04/24 04:09:18;;;;;;;15.70;12.27;;;;;;;;;;6729085;26;20795;-72
2024/04/24 04:12:21;;;;;;;17.98;12.43;;;;;;;;;;6717075;26;20060;-71
2024/04/24 04:15:24;;;;;;;17.95;12.05;;;;;;;;;;6716459;26;20007;-72
2024/04/24 04:18:27;;;;;;;17.27;11.60;;;;;;;;;;6759943;26;20018;-72
2024/04/24 04:21:30;;;;;;;17.40;11.10;;;;;;;;;;6762918;26;20017;-72
2024/04/24 04:24:32;;;;;;;21.90;9.65;;;;;;;;;;6737183;26;20736;-73
2024/04/24 04:27:35;;;;;;;22.63;11.38;;;;;;;;;;6747318;26;21102;-72
2024/04/24 04:30:38;;;;;;;15.40;11.30;;;;;;;;;;6712321;26;19999;-70
2024/04/24 04:33:40;;;;;;;24.67;15.65;;;;;;;;;;6761337;26;20562;-72
2024/04/24 04:36:43;;;;;;;25.65;14.18;;;;;;;;;;6698665;26;20002;-72
2024/04/24 04:39:45;;;;;;;28.98;15.75;;;;;;;;;;6721810;26;19999;-71
2024/04/24 04:42:48;;;;;;;88.75;38.45;;;;;;;;;;6756110;26;20075;-71
2024/04/24 04:45:51;;;;;;;40.50;22.58;;;;;;;;;;6741808;26;20475;-71
2024/04/24 04:48:53;;;;;;;21.63;14.27;;;;;;;;;;6737820;26;20006;-72
2024/04/24 04:51:56;;;;;;;17.10;10.43;;;;;;;;;;6759246;26;20422;-72
2024/04/24 04:54:59;;;;;;;15.93;11.38;;;;;;;;;;6736087;26;20042;-72
2024/04/24 04:58:02;;;;;;;13.48;10.52;;;;;;;;;;6745730;26;20038;-71
2024/04/24 05:01:04;;;;;;;18.42;12.32;;;;;;;;;;6717060;26;20591;-72
2024/04/24 05:04:07;;;;;;;16.92;11.40;;;;;;;;;;6747481;26;20627;-71
2024/04/24 05:07:09;;;;;;;18.90;12.57;;;;;;;;;;6715909;26;20003;-72
2024/04/24 05:10:12;;;;;;;17.92;12.27;;;;;;;;;;6756388;26;20051;-71
2024/04/24 05:13:16;;;;;;;18.15;11.77;;;;;;;;;;6725460;26;20474;-71
2024/04/24 05:16:19;;;;;;;20.27;11.60;;;;;;;;;;6719809;26;20006;-71
2024/04/24 05:19:21;;;;;;;17.25;11.27;;;;;;;;;;6740647;26;20005;-70
2024/04/24 05:22:25;;;;;;;12.95;10.48;;;;;;;;;;6709652;26;20013;-71
2024/04/24 05:25:28;;;;;;;15.90;8.05;;;;;;;;;;6761132;26;20359;-70
2024/04/24 05:31:52;;;;;;;16.98;10.32;;;;;;;;;;6726885;26;20072;-71
2024/04/24 05:34:55;;;;;;;18.25;13.68;;;;;;;;;;6767422;26;19999;-71
2024/04/24 05:37:58;;;;;;;12.07;9.48;;;;;;;;;;6784590;26;20074;-72
2024/04/24 05:41:00;;;;;;;26.63;14.48;;;;;;;;;;6672097;26;20010;-72
2024/04/24 05:44:03;;;;;;;10.00;7.95;;;;;;;;;;6761577;26;20440;-71
2024/04/24 05:47:06;;;;;;;13.10;9.60;;;;;;;;;;6698463;26;20013;-72
2024/04/24 05:50:08;;;;;;;12.90;8.93;;;;;;;;;;6730757;26;20062;-71
2024/04/24 05:53:11;;;;;;;7.97;6.88;;;;;;;;;;6707056;26;20035;-72
2024/04/24 05:56:14;;;;;;;17.48;10.38;;;;;;;;;;6701100;26;20018;-72
2024/04/24 05:59:17;;;;;;;14.77;10.65;;;;;;;;;;6717763;26;20017;-72
2024/04/24 06:02:20;;;;;;;13.25;10.43;;;;;;;;;;6771432;26;20010;-72
2024/04/24 06:05:23;;;;;;;18.05;11.23;;;;;;;;;;6730370;26;20037;-71
2024/04/24 06:08:26;;;;;;;14.73;9.93;;;;;;;;;;6750616;26;19995;-72
2024/04/24 06:11:28;;;;;;;17.52;9.43;;;;;;;;;;6694863;26;20015;-72
2024/04/24 06:14:31;;;;;;;13.00;8.95;;;;;;;;;;6738686;26;20019;-73
2024/04/24 06:17:34;;;;;;;12.32;8.82;;;;;;;;;;6697430;26;20969;-71
2024/04/24 06:20:37;;;;;;;18.73;11.65;;;;;;;;;;6708490;26;20010;-72
2024/04/24 06:23:39;;;;;;;14.30;7.35;;;;;;;;;;6755940;26;20003;-72
2024/04/24 06:26:42;;;;;;;13.25;7.20;;;;;;;;;;6717686;26;20043;-72
2024/04/24 06:29:47;;;;;;;13.32;5.75;;;;;;;;;;6694153;26;20046;-72
2024/04/24 06:32:50;;;;;;;14.30;10.30;;;;;;;;;;6724742;26;20016;-72
2024/04/24 06:35:53;;;;;;;15.00;8.52;;;;;;;;;;6741069;26;20017;-72
2024/04/24 06:38:56;;;;;;;14.18;10.48;;;;;;;;;;6764603;26;20047;-72
2024/04/24 06:41:59;;;;;;;14.18;8.40;;;;;;;;;;6734183;26;20003;-72
2024/04/24 06:45:01;;;;;;;12.65;8.57;;;;;;;;;;6672338;26;20918;-73
2024/04/24 06:48:05;;;;;;;16.80;10.00;;;;;;;;;;6730378;26;19994;-72
2024/04/24 06:51:08;;;;;;;10.00;6.05;;;;;;;;;;6726876;26;20092;-73
2024/04/24 06:54:10;;;;;;;9.32;4.65;;;;;;;;;;6711087;26;20003;-73
2024/04/24 06:57:13;;;;;;;7.38;4.35;;;;;;;;;;6704172;26;20016;-73
2024/04/24 07:00:16;;;;;;;7.25;5.53;;;;;;;;;;6760420;26;20010;-72
2024/04/24 07:03:18;;;;;;;5.03;3.85;;;;;;;;;;6722769;26;20007;-73
2024/04/24 07:06:21;;;;;;;5.75;3.72;;;;;;;;;;6715875;26;20010;-73
2024/04/24 07:09:23;;;;;;;6.00;5.35;;;;;;;;;;6728515;26;20014;-73
2024/04/24 07:12:26;;;;;;;5.30;3.90;;;;;;;;;;6723107;26;19998;-72
2024/04/24 07:15:29;;;;;;;5.25;2.10;;;;;;;;;;6756921;26;20555;-73
2024/04/24 07:18:31;;;;;;;5.53;3.80;;;;;;;;;;6722760;26;20463;-73
2024/04/24 07:21:34;;;;;;;9.55;4.00;;;;;;;;;;6721030;26;20014;-73
2024/04/24 07:24:36;;;;;;;9.27;2.15;;;;;;;;;;6752259;26;20490;-72
2024/04/24 07:27:39;;;;;;;7.28;1.95;;;;;;;;;;6730550;26;19998;-73
2024/04/24 07:30:42;;;;;;;4.72;1.90;;;;;;;;;;6713086;26;20007;-72
2024/04/24 07:33:45;;;;;;;5.95;5.25;;;;;;;;;;6677898;26;20010;-73
2024/04/24 07:36:47;;;;;;;6.05;3.78;;;;;;;;;;6727346;26;19998;-73
2024/04/24 07:39:50;;;;;;;4.82;1.40;;;;;;;;;;6760367;26;19998;-72
2024/04/24 07:42:53;;;;;;;9.32;4.82;;;;;;;;;;6669979;26;20079;-72
2024/04/24 07:45:56;;;;;;;2.70;0.90;;;;;;;;;;6695332;26;19999;-73
2024/04/24 07:48:58;;;;;;;3.15;2.85;;;;;;;;;;6761700;26;20964;-73
2024/04/24 07:52:01;;;;;;;6.40;1.35;;;;;;;;;;6721287;26;20007;-72
2024/04/24 07:55:04;;;;;;;6.70;1.63;;;;;;;;;;6704624;26;20011;-73
2024/04/24 07:58:06;;;;;;;3.92;3.22;;;;;;;;;;6737768;26;20002;-72
2024/04/24 08:01:09;;;;;;;3.08;1.02;;;;;;;;;;6723596;26;20013;-72
2024/04/24 08:04:12;;;;;;;6.35;2.13;;;;;;;;;;6701289;26;20020;-72
2024/04/24 08:07:15;;;;;;;3.90;1.15;;;;;;;;;;6725765;26;20022;-73
2024/04/24 08:10:18;;;;;;;2.67;1.25;;;;;;;;;;6679919;26;20013;-72
2024/04/24 08:13:20;;;;;;;4.10;1.40;;;;;;;;;;6702616;26;20150;-73
2024/04/24 08:16:23;;;;;;;6.07;1.00;;;;;;;;;;6683283;26;20007;-74
2024/04/24 08:19:26;;;;;;;2.13;0.88;;;;;;;;;;6749310;26;20013;-73
2024/04/24 08:22:28;;;;;;;4.78;0.95;;;;;;;;;;6741605;26;20859;-72
2024/04/24 08:25:31;;;;;;;5.35;1.33;;;;;;;;;;6726350;26;20838;-73
2024/04/24 08:28:34;;;;;;;2.85;0.90;;;;;;;;;;6728366;26;20083;-73
2024/04/24 08:31:42;;;;;;;4.80;1.27;;;;;;;;;;6738830;26;20044;-73
2024/04/24 08:34:45;;;;;;;8.18;2.35;;;;;;;;;;6682155;26;20079;-73
2024/04/24 08:37:47;;;;;;;5.22;1.55;;;;;;;;;;6744078;26;20259;-73
2024/04/24 08:40:51;;;;;;;4.35;3.33;;;;;;;;;;6694528;26;20003;-74
2024/04/24 08:43:54;;;;;;;5.15;3.45;;;;;;;;;;6736379;26;20061;-73
2024/04/24 08:46:57;;;;;;;3.38;1.65;;;;;;;;;;6723955;26;20007;-72
2024/04/24 08:50:00;;;;;;;3.83;1.42;;;;;;;;;;6753711;26;20108;-73
2024/04/24 08:53:04;;;;;;;4.15;1.52;;;;;;;;;;6725205;26;20022;-74
2024/04/24 08:56:12;;;;;;;7.57;4.53;;;;;;;;;;6732758;26;20002;-73
2024/04/24 08:59:27;;;;;;;3.20;1.42;;;;;;;;;;6730380;26;20405;-73
2024/04/24 09:02:38;;;;;;;5.20;1.80;;;;;;;;;;6739297;26;20935;-73
2024/04/24 09:05:42;;;;;;;4.78;1.23;;;;;;;;;;6710417;26;20460;-73
2024/04/24 09:08:45;;;;;;;5.43;1.40;;;;;;;;;;6709622;26;20006;-73
2024/04/24 09:11:49;;;;;;;12.30;4.32;;;;;;;;;;6722897;26;20534;-74
2024/04/24 09:14:52;;;;;;;5.57;3.22;;;;;;;;;;6704063;26;20003;-74
2024/04/24 09:17:57;;;;;;;3.55;1.08;;;;;;;;;;6783032;26;20042;-73
2024/04/24 09:21:00;;;;;;;;;;;;;;;;;;6777064;26;20026;-73
2024/04/24 09:24:02;;;;;;;3.15;1.23;;;;;;;;;;6702502;26;19935;-73
2024/04/24 09:27:05;;;;;;;5.03;3.58;;;;;;;;;;6716697;26;20049;-73
2024/04/24 09:30:11;;;;;;;3.45;1.40;;;;;;;;;;6770687;26;20351;-74
2024/04/24 09:33:13;;;;;;;2.97;1.10;;;;;;;;;;6729339;26;19998;-74
2024/04/24 09:36:16;;;;;;;4.70;3.15;;;;;;;;;;6727377;26;20021;-74
2024/04/24 09:39:19;;;;;;;3.75;1.23;;;;;;;;;;6720423;26;20014;-74
2024/04/24 09:42:22;;;;;;;5.55;2.00;;;;;;;;;;6740997;26;20811;-74
2024/04/24 09:45:28;;;;;;;3.80;3.38;;;;;;;;;;6705408;26;20005;-74
2024/04/24 09:48:30;;;;;;;5.55;2.78;;;;;;;;;;6746896;26;20013;-73
2024/04/24 09:51:36;;;;;;;7.57;1.75;;;;;;;;;;6688955;26;20002;-73
2024/04/24 09:54:39;;;;;;;5.57;3.33;;;;;;;;;;6692269;26;19994;-74
2024/04/24 09:57:44;;;;;;;5.78;1.52;;;;;;;;;;6712687;26;20334;-73
2024/04/24 10:00:47;;;;;;;4.40;1.55;;;;;;;;;;6724264;26;20040;-74
2024/04/24 10:03:54;;;;;;;8.30;3.28;;;;;;;;;;6705825;26;20919;-73
2024/04/24 10:06:58;;;;;;;11.65;2.28;;;;;;;;;;6727384;26;20372;-74
2024/04/24 10:10:01;;;;;;;7.55;1.58;;;;;;;;;;6711702;26;20359;-74
2024/04/24 10:13:05;;;;;;;6.93;3.38;;;;;;;;;;6749545;26;20011;-73
2024/04/24 10:16:08;;;;;;;8.15;3.58;;;;;;;;;;6698446;26;20006;-74
2024/04/24 10:19:13;;;;;;;4.63;1.20;;;;;;;;;;6718881;26;19998;-73
2024/04/24 10:22:16;;;;;;;4.35;1.73;;;;;;;;;;6702673;26;20026;-73
2024/04/24 10:25:20;;;;;;;4.68;1.63;;;;;;;;;;6720972;26;19999;-73
2024/04/24 10:28:24;;;;;;;5.72;2.92;;;;;;;;;;6735617;26;19998;-74
2024/04/24 10:31:27;;;;;;;;;;;;;;;;;;6690276;26;20003;-74
2024/04/24 10:34:30;;;;;;;6.18;4.45;;;;;;;;;;6727380;26;19932;-73
2024/04/24 10:37:33;;;;;;;7.70;5.07;;;;;;;;;;6762077;26;20007;-74
2024/04/24 10:40:35;;;;;;;5.00;4.47;;;;;;;;;;6688896;26;20023;-74
2024/04/24 10:43:43;;;;;;;9.32;2.42;;;;;;;;;;6707387;26;19998;-74
2024/04/24 10:46:46;;;;;;;5.35;2.33;;;;;;;;;;6692208;26;20016;-73
2024/04/24 10:49:58;;;;;;;6.82;4.03;;;;;;;;;;6698747;26;20026;-74
2024/04/24 10:53:03;;;;;;;6.25;2.20;;;;;;;;;;6735915;26;20002;-74
2024/04/24 10:56:06;;;;;;;7.25;1.70;;;;;;;;;;6693368;26;20525;-74
2024/04/24 10:59:08;;;;;;;8.30;2.25;;;;;;;;;;6707124;26;20078;-75
2024/04/24 11:02:18;;;;;;;6.95;2.78;;;;;;;;;;6723967;26;20021;-74
2024/04/24 11:05:21;;;;;;;6.40;2.47;;;;;;;;;;6720269;26;20014;-75
2024/04/24 11:08:25;;;;;;;8.35;1.35;;;;;;;;;;6712473;26;20409;-75
2024/04/24 11:11:28;;;;;;;5.85;1.67;;;;;;;;;;6695195;26;20055;-74
2024/04/24 11:14:41;;;;;;;4.75;1.92;;;;;;;;;;6688460;26;20695;-74
2024/04/24 11:17:45;;;;;;;4.95;3.88;;;;;;;;;;6759248;26;20031;-74
2024/04/24 11:20:47;;;;;;;7.90;2.15;;;;;;;;;;6707247;26;20017;-75
2024/04/24 11:23:52;;;;;;;7.53;2.45;;;;;;;;;;6726160;26;19999;-74
2024/04/24 11:26:54;;;;;;;5.22;1.45;;;;;;;;;;6767345;26;19998;-75
2024/04/24 11:29:57;;;;;;;5.95;2.72;;;;;;;;;;6732108;26;19995;-75
2024/04/24 11:33:00;;;;;;;6.70;2.05;;;;;;;;;;6767666;26;20003;-75
2024/04/24 11:36:04;;;;;;;7.97;3.35;;;;;;;;;;6763311;26;20469;-75
2024/04/24 11:39:08;;;;;;;6.70;2.60;;;;;;;;;;6688082;26;20776;-75
2024/04/24 11:42:10;;;;;;;5.22;2.28;;;;;;;;;;6739001;26;21458;-75
2024/04/24 11:45:20;;;;;;;5.10;2.95;;;;;;;;;;6668439;26;20017;-75
2024/04/24 11:48:25;;;;;;;5.82;2.65;;;;;;;;;;6721727;26;20022;-75
2024/04/24 11:51:45;;;;;;;7.35;2.25;;;;;;;;;;6700684;26;20013;-75
2024/04/24 11:54:52;;;;;;;5.50;2.42;;;;;;;;;;6758350;26;20109;-75
2024/04/24 11:57:55;;;;;;;7.25;2.15;;;;;;;;;;6764721;26;20006;-75
2024/04/24 12:00:58;;;;;;;5.88;1.83;;;;;;;;;;6717268;26;20017;-75
2024/04/24 12:04:01;;;;;;;5.45;2.35;;;;;;;;;;6707535;26;20042;-75
2024/04/24 12:07:04;;;;;;;6.32;2.67;;;;;;;;;;6718591;26;20618;-75
2024/04/24 12:10:07;;;;;;;9.77;1.95;;;;;;;;;;6718996;26;20018;-75
2024/04/24 12:13:09;;;;;;;13.55;3.15;;;;;;;;;;6699506;26;20005;-75
2024/04/24 12:16:19;;;;;;;7.50;3.03;;;;;;;;;;6699353;26;20011;-75
2024/04/24 12:19:22;;;;;;;6.22;2.10;;;;;;;;;;6705115;26;20011;-75
2024/04/24 12:22:25;;;;;;;4.68;2.33;;;;;;;;;;6709781;26;20045;-75
2024/04/24 12:25:27;;;;;;;5.45;1.80;;;;;;;;;;6732716;26;20006;-75
2024/04/24 12:28:30;;;;;;;4.60;2.63;;;;;;;;;;6748577;26;20014;-74
2024/04/24 12:31:33;;;;;;;6.05;2.40;;;;;;;;;;6767133;26;20340;-75
2024/04/24 12:34:36;;;;;;;5.82;2.40;;;;;;;;;;6668376;26;20058;-74
2024/04/24 12:37:39;;;;;;;4.43;1.15;;;;;;;;;;6725282;26;20479;-74
2024/04/24 12:40:41;;;;;;;5.43;2.38;;;;;;;;;;6733501;25;20018;-75
2024/04/24 12:43:44;;;;;;;4.78;2.53;;;;;;;;;;6764439;26;20017;-75
2024/04/24 12:46:47;;;;;;;5.40;3.03;;;;;;;;;;6702715;26;20534;-76
2024/04/24 12:49:51;;;;;;;3.20;1.83;;;;;;;;;;6727763;26;20079;-75
2024/04/24 12:52:54;;;;;;;4.55;2.35;;;;;;;;;;6756717;26;20072;-75
2024/04/24 12:55:56;;;;;;;8.18;2.42;;;;;;;;;;6779719;26;20048;-76
2024/04/24 12:58:59;;;;;;;8.85;2.08;;;;;;;;;;6739202;26;20009;-76
2024/04/24 13:02:03;;;;;;;6.95;2.20;;;;;;;;;;6742528;26;20006;-75
2024/04/24 13:05:06;;;;;;;5.68;2.08;;;;;;;;;;6736207;26;20013;-73
2024/04/24 13:08:08;;;;;;;5.72;3.38;;;;;;;;;;6777962;26;20002;-73
2024/04/24 13:11:11;;;;;;;11.70;3.22;;;;;;;;;;6753116;26;19994;-73
2024/04/24 13:14:14;;;;;;;6.28;2.22;;;;;;;;;;6763920;26;20031;-72
2024/04/24 13:17:16;;;;;;;6.78;2.85;;;;;;;;;;6694215;26;20003;-73
2024/04/24 13:20:22;;;;;;;6.65;2.15;;;;;;;;;;6708455;26;20941;-73
2024/04/24 13:23:25;;;;;;;6.18;2.25;;;;;;;;;;6743903;26;19998;-75
2024/04/24 13:26:27;;;;;;;7.63;3.40;;;;;;;;;;6745011;26;20017;-75
2024/04/24 13:29:30;;;;;;;6.63;3.38;;;;;;;;;;6705057;26;20006;-73
2024/04/24 13:32:33;;;;;;;10.70;2.25;;;;;;;;;;6744091;26;20377;-73
2024/04/24 13:35:36;;;;;;;8.07;2.20;;;;;;;;;;6692415;26;20050;-73
2024/04/24 13:38:39;;;;;;;4.78;1.77;;;;;;;;;;6731979;26;20013;-73
2024/04/24 13:41:42;;;;;;;8.20;1.92;;;;;;;;;;6721553;26;20528;-74
2024/04/24 13:44:47;;;;;;;4.45;2.17;;;;;;;;;;6737426;26;20034;-74
2024/04/24 13:47:50;;;;;;;4.78;1.90;;;;;;;;;;6767878;26;20080;-75
2024/04/24 13:50:53;;;;;;;6.40;2.53;;;;;;;;;;6725992;26;20010;-74
2024/04/24 13:53:57;;;;;;;7.32;2.15;;;;;;;;;;6724765;26;20445;-74
2024/04/24 13:56:59;;;;;;;7.28;2.30;;;;;;;;;;6769303;26;20024;-74
2024/04/24 14:00:02;;;;;;;8.75;2.42;;;;;;;;;;6728194;26;20031;-74
2024/04/24 14:03:11;;;;;;;5.93;2.85;;;;;;;;;;6715256;26;19999;-74
2024/04/24 14:06:13;;;;;;;6.40;2.47;;;;;;;;;;6692610;26;20003;-73
2024/04/24 14:09:18;;;;;;;5.43;2.28;;;;;;;;;;6686437;26;20023;-74
2024/04/24 14:12:20;;;;;;;7.13;2.08;;;;;;;;;;6726452;26;20003;-73
2024/04/24 14:15:23;;;;;;;9.05;1.88;;;;;;;;;;6730955;26;20050;-75
2024/04/24 14:18:27;;;;;;;9.00;2.92;;;;;;;;;;6759788;26;20018;-74
2024/04/24 14:21:33;;;;;;;6.60;1.88;;;;;;;;;;6742821;26;20024;-74
2024/04/24 14:24:36;;;;;;;5.97;1.58;;;;;;;;;;6731014;26;20420;-73
2024/04/24 14:27:39;;;;;;;8.32;2.28;;;;;;;;;;6733819;26;20002;-73
2024/04/24 14:30:41;;;;;;;4.70;2.75;;;;;;;;;;6703936;26;19999;-74
2024/04/24 14:33:48;;;;;;;7.65;2.78;;;;;;;;;;6722419;26;20006;-74
2024/04/24 14:36:55;;;;;;;5.50;2.58;;;;;;;;;;6774405;26;20865;-74
2024/04/24 14:39:59;;;;;;;6.40;2.65;;;;;;;;;;6736357;26;20787;-74
2024/04/24 14:43:02;;;;;;;3.63;2.20;;;;;;;;;;6738727;26;19998;-73
2024/04/24 14:46:04;;;;;;;3.78;1.90;;;;;;;;;;6763649;26;20035;-74
2024/04/24 14:49:07;;;;;;;2.88;1.77;;;;;;;;;;6766908;26;20027;-74
2024/04/24 14:52:17;;;;;;;5.78;2.72;;;;;;;;;;6741929;26;19998;-74
2024/04/24 14:55:20;;;;;;;3.97;2.25;;;;;;;;;;6699217;26;19998;-74
2024/04/24 14:58:22;;;;;;;5.07;2.08;;;;;;;;;;6722352;26;20052;-73
2024/04/24 15:01:27;;;;;;;6.45;2.00;;;;;;;;;;6716807;26;19999;-74
2024/04/24 15:04:30;;;;;;;5.47;2.05;;;;;;;;;;6725246;26;20003;-73
2024/04/24 15:07:33;;;;;;;5.15;1.50;;;;;;;;;;6733739;26;20375;-74
2024/04/24 15:10:36;;;;;;;5.68;2.50;;;;;;;;;;6742471;26;20009;-74
2024/04/24 15:13:39;;;;;;;6.90;1.75;;;;;;;;;;6724966;26;20057;-75
2024/04/24 15:16:44;;;;;;;5.93;2.47;;;;;;;;;;6734968;26;20021;-75
2024/04/24 15:19:47;;;;;;;4.90;2.10;;;;;;;;;;6734122;26;20073;-75
2024/04/24 15:22:50;;;;;;;5.63;3.30;;;;;;;;;;6741754;26;20013;-75
2024/04/24 15:25:52;;;;;;;5.38;2.50;;;;;;;;;;6755029;26;20002;-75
2024/04/24 15:28:55;;;;;;;6.07;2.83;;;;;;;;;;6758087;26;20025;-75
2024/04/24 15:31:59;;;;;;;5.78;2.10;;;;;;;;;;6740131;26;20864;-75
2024/04/24 15:35:03;;;;;;;3.92;2.03;;;;;;;;;;6758837;26;20006;-75
2024/04/24 15:38:05;;;;;;;6.20;2.85;;;;;;;;;;6778832;26;20013;-75
2024/04/24 15:41:08;;;;;;;4.95;1.52;;;;;;;;;;6734638;26;20003;-76
2024/04/24 15:44:11;;;;;;;11.00;2.20;;;;;;;;;;6750755;26;20014;-75
2024/04/24 15:47:13;;;;;;;7.78;2.10;;;;;;;;;;6769316;26;19998;-76
2024/04/24 15:50:16;;;;;;;7.03;2.15;;;;;;;;;;6737428;26;20010;-76
2024/04/24 15:53:19;;;;;;;5.45;2.45;;;;;;;;;;6753436;26;20003;-76
2024/04/24 15:56:22;;;;;;;3.90;1.77;;;;;;;;;;6706240;26;20003;-78
2024/04/24 15:59:25;;;;;;;5.65;2.05;;;;;;;;;;6757882;26;20487;-75
2024/04/24 16:02:28;;;;;;;6.93;3.25;;;;;;;;;;6768470;26;20053;-74
2024/04/24 16:05:31;;;;;;;4.93;2.10;;;;;;;;;;6739211;26;20126;-75
2024/04/24 16:08:34;;;;;;;5.28;2.45;;;;;;;;;;6735231;26;20088;-77
2024/04/24 16:11:36;;;;;;;5.00;1.80;;;;;;;;;;6722175;26;20609;-74
2024/04/24 16:14:39;;;;;;;4.43;1.77;;;;;;;;;;6744843;26;19995;-74
2024/04/24 16:17:42;;;;;;;5.07;2.60;;;;;;;;;;6733607;26;20055;-74
2024/04/24 16:20:44;;;;;;;6.05;2.13;;;;;;;;;;6733602;26;20575;-75
2024/04/24 16:23:47;;;;;;;6.15;2.03;;;;;;;;;;6700772;26;20007;-74
2024/04/24 16:26:50;;;;;;;5.13;2.22;;;;;;;;;;6744397;26;20042;-73
2024/04/24 16:29:52;;;;;;;3.15;1.73;;;;;;;;;;6725753;26;20009;-75
2024/04/24 16:32:55;;;;;;;4.05;2.33;;;;;;;;;;6758052;26;19998;-75
2024/04/24 16:35:58;;;;;;;4.57;1.85;;;;;;;;;;6704743;26;20022;-74
2024/04/24 16:39:01;;;;;;;5.88;2.45;;;;;;;;;;6733211;26;19999;-74
2024/04/24 16:42:04;;;;;;;5.20;1.98;;;;;;;;;;6693532;26;20002;-74
2024/04/24 16:45:06;;;;;;;5.43;2.38;;;;;;;;;;6679662;26;20001;-74
2024/04/24 16:48:12;;;;;;;5.45;2.00;;;;;;;;;;6750834;26;20014;-74
2024/04/24 16:51:15;;;;;;;7.80;3.13;;;;;;;;;;6734817;26;20002;-73
2024/04/24 16:54:18;;;;;;;7.28;2.85;;;;;;;;;;6740162;26;20469;-73
2024/04/24 16:57:21;;;;;;;3.55;1.48;;;;;;;;;;6734656;26;20034;-73
2024/04/24 17:00:25;;;;;;;8.10;3.15;;;;;;;;;;6730193;26;20090;-74
2024/04/24 17:03:28;;;;;;;60.45;51.15;;;;;;;;;;6723968;26;20144;-73
2024/04/24 17:06:31;;;;;;;13.32;7.97;;;;;;;;;;6695197;26;20078;-74
2024/04/24 17:09:34;;;;;;;6.13;3.78;;;;;;;;;;6721944;26;20476;-75
2024/04/24 17:12:37;;;;;;;7.65;3.85;;;;;;;;;;6695460;26;20017;-73
2024/04/24 17:15:41;;;;;;;7.65;4.85;;;;;;;;;;6721867;26;20007;-74
2024/04/24 17:18:44;;;;;;;5.70;2.28;;;;;;;;;;6714481;26;20259;-73
2024/04/24 17:21:47;;;;;;;3.60;1.80;;;;;;;;;;6724032;26;19999;-74
2024/04/24 17:24:49;;;;;;;3.28;1.30;;;;;;;;;;6726678;26;21655;-74
2024/04/24 17:27:52;;;;;;;3.70;1.77;;;;;;;;;;6703678;26;20018;-74
2024/04/24 17:30:55;;;;;;;3.17;0.95;;;;;;;;;;6693444;26;20010;-74
2024/04/24 17:33:57;;;;;;;5.43;1.08;;;;;;;;;;6683788;26;20000;-74
2024/04/24 17:37:00;;;;;;;4.25;2.45;;;;;;;;;;6728007;26;19998;-75
2024/04/24 17:40:03;;;;;;;4.20;2.28;;;;;;;;;;6698867;26;20330;-74
2024/04/24 17:43:07;;;;;;;5.72;2.33;;;;;;;;;;6717741;26;20021;-74
2024/04/24 17:46:10;;;;;;;;;;;;;;;;;;6770445;26;20779;-74
2024/04/24 17:49:12;;;;;;;12.45;4.55;;;;;;;;;;6761105;26;19924;-74
2024/04/24 17:52:15;;;;;;;10.77;3.92;;;;;;;;;;6720982;26;20020;-75
2024/04/24 17:55:18;;;;;;;11.68;3.05;;;;;;;;;;6761348;26;20006;-74
2024/04/24 17:58:21;;;;;;;7.95;2.75;;;;;;;;;;6706764;26;20026;-73
2024/04/24 18:01:25;;;;;;;13.60;8.85;;;;;;;;;;6702902;26;20035;-74
2024/04/24 18:04:27;;;;;;;14.07;8.10;;;;;;;;;;6646172;26;20002;-74
2024/04/24 18:07:32;;;;;;;18.00;13.13;;;;;;;;;;6759696;26;20003;-74
2024/04/24 18:10:34;;;;;;;;;;;;;;;;;;6732740;26;20007;-73
2024/04/24 18:13:37;;;;;;;6.82;2.85;;;;;;;;;;6727024;26;20372;-73